sensor_id;sensor_type;location;lat;lon;timestamp;pressure;altitude;pressure_sealevel;temperature;humidity
64064;BME280;50314;50.618;10.642;2022-10-18T00:01:34;97622.97;;;19.78;29.08
64064;BME280;50314;50.618;10.642;2022-10-18T00:03:59;97617.81;;;19.76;29.02
64064;BME280;50314;50.618;10.642;2022-10-18T00:06:24;97617.81;;;19.76;28.85
64064;BME280;50314;50.618;10.642;2022-10-18T00:08:50;97616.97;;;19.76;28.91
64064;BME280;50314;50.618;10.642;2022-10-18T00:11:16;97624.28;;;19.74;28.91
64064;BME280;50314;50.618;10.642;2022-10-18T00:13:41;97622.44;;;19.74;29.14
64064;BME280;50314;50.618;10.642;2022-10-18T00:16:11;97616.41;;;19.72;28.99
64064;BME280;50314;50.618;10.642;2022-10-18T00:18:37;97612.59;;;19.75;28.86
64064;BME280;50314;50.618;10.642;2022-10-18T00:21:09;97612.75;;;19.73;28.88
64064;BME280;50314;50.618;10.642;2022-10-18T00:23:35;97605.72;;;19.72;29.24
64064;BME280;50314;50.618;10.642;2022-10-18T00:26:10;97611.38;;;19.69;29.15
64064;BME280;50314;50.618;10.642;2022-10-18T00:28:37;97605.88;;;19.70;29.18
64064;BME280;50314;50.618;10.642;2022-10-18T00:31:21;97605.50;;;19.65;28.82
64064;BME280;50314;50.618;10.642;2022-10-18T00:33:50;97611.38;;;19.69;29.29
64064;BME280;50314;50.618;10.642;2022-10-18T00:36:16;97610.50;;;19.68;29.20
64064;BME280;50314;50.618;10.642;2022-10-18T00:38:42;97610.50;;;19.68;29.28
64064;BME280;50314;50.618;10.642;2022-10-18T00:41:10;97603.50;;;19.67;29.03
64064;BME280;50314;50.618;10.642;2022-10-18T00:46:22;97602.81;;;19.65;29.04
64064;BME280;50314;50.618;10.642;2022-10-18T00:48:49;97596.78;;;19.63;29.21
64064;BME280;50314;50.618;10.642;2022-10-18T00:51:17;97602.94;;;19.64;29.31
64064;BME280;50314;50.618;10.642;2022-10-18T00:53:44;97594.94;;;19.64;28.91
64064;BME280;50314;50.618;10.642;2022-10-18T00:56:10;97597.59;;;19.64;29.14
64064;BME280;50314;50.618;10.642;2022-10-18T00:58:36;97596.78;;;19.63;29.27
64064;BME280;50314;50.618;10.642;2022-10-18T01:01:02;97596.91;;;19.62;29.21
64064;BME280;50314;50.618;10.642;2022-10-18T01:03:27;97602.25;;;19.62;29.09
64064;BME280;50314;50.618;10.642;2022-10-18T01:05:53;97599.56;;;19.62;29.29
64064;BME280;50314;50.618;10.642;2022-10-18T01:11:28;97603.41;;;19.59;28.85
64064;BME280;50314;50.618;10.642;2022-10-18T01:16:46;97594.31;;;19.52;29.13
64064;BME280;50314;50.618;10.642;2022-10-18T01:22:03;97597.09;;;19.51;29.04
64064;BME280;50314;50.618;10.642;2022-10-18T01:24:53;97597.09;;;19.51;28.94
64064;BME280;50314;50.618;10.642;2022-10-18T01:27:40;97596.56;;;19.47;29.04
64064;BME280;50314;50.618;10.642;2022-10-18T01:30:30;97592.22;;;19.46;29.44
64064;BME280;50314;50.618;10.642;2022-10-18T01:33:04;97599.25;;;19.47;29.08
64064;BME280;50314;50.618;10.642;2022-10-18T01:35:35;97604.44;;;19.48;29.13
64064;BME280;50314;50.618;10.642;2022-10-18T01:38:06;97588.25;;;19.50;28.86
64064;BME280;50314;50.618;10.642;2022-10-18T01:40:37;97582.91;;;19.50;29.13
64064;BME280;50314;50.618;10.642;2022-10-18T01:43:07;97586.59;;;19.49;29.32
64064;BME280;50314;50.618;10.642;2022-10-18T01:45:33;97586.59;;;19.49;29.19
64064;BME280;50314;50.618;10.642;2022-10-18T01:47:59;97588.56;;;19.47;29.22
64064;BME280;50314;50.618;10.642;2022-10-18T01:50:30;97580.84;;;19.44;29.46
64064;BME280;50314;50.618;10.642;2022-10-18T01:52:57;97586.88;;;19.46;29.36
64064;BME280;50314;50.618;10.642;2022-10-18T01:55:44;97581.13;;;19.41;29.52
64064;BME280;50314;50.618;10.642;2022-10-18T02:01:40;97579.28;;;19.41;29.21
64064;BME280;50314;50.618;10.642;2022-10-18T02:04:39;97574.38;;;19.37;29.17
64064;BME280;50314;50.618;10.642;2022-10-18T02:07:27;97563.84;;;19.35;29.17
64064;BME280;50314;50.618;10.642;2022-10-18T02:12:28;97562.69;;;19.38;29.03
64064;BME280;50314;50.618;10.642;2022-10-18T02:14:56;97568.88;;;19.38;28.99
64064;BME280;50314;50.618;10.642;2022-10-18T02:17:25;97574.22;;;19.38;29.02
64064;BME280;50314;50.618;10.642;2022-10-18T02:19:53;97567.19;;;19.37;29.10
64064;BME280;50314;50.618;10.642;2022-10-18T02:22:21;97569.78;;;19.39;29.30
64064;BME280;50314;50.618;10.642;2022-10-18T02:24:52;97565.34;;;19.38;28.93
64064;BME280;50314;50.618;10.642;2022-10-18T02:27:19;97565.34;;;19.38;29.40
64064;BME280;50314;50.618;10.642;2022-10-18T02:29:45;97560.84;;;19.38;29.18
64064;BME280;50314;50.618;10.642;2022-10-18T02:34:59;97559.09;;;19.29;29.43
64064;BME280;50314;50.618;10.642;2022-10-18T02:37:29;97551.63;;;19.33;29.47
64064;BME280;50314;50.618;10.642;2022-10-18T02:39:57;97552.47;;;19.33;29.46
64064;BME280;50314;50.618;10.642;2022-10-18T02:42:22;97561.31;;;19.34;29.33
64064;BME280;50314;50.618;10.642;2022-10-18T02:44:48;97567.66;;;19.33;28.93
64064;BME280;50314;50.618;10.642;2022-10-18T02:47:13;97574.00;;;19.32;28.97
64064;BME280;50314;50.618;10.642;2022-10-18T02:49:39;97575.78;;;19.31;29.05
64064;BME280;50314;50.618;10.642;2022-10-18T02:52:04;97574.97;;;19.31;29.28
64064;BME280;50314;50.618;10.642;2022-10-18T02:54:30;97568.78;;;19.30;29.46
64064;BME280;50314;50.618;10.642;2022-10-18T02:56:55;97565.28;;;19.30;29.12
64064;BME280;50314;50.618;10.642;2022-10-18T02:59:21;97567.09;;;19.29;29.37
64064;BME280;50314;50.618;10.642;2022-10-18T03:01:46;97566.28;;;19.29;29.10
64064;BME280;50314;50.618;10.642;2022-10-18T03:06:38;97569.06;;;19.27;29.49
64064;BME280;50314;50.618;10.642;2022-10-18T03:09:04;97566.28;;;19.29;29.51
64064;BME280;50314;50.618;10.642;2022-10-18T03:11:30;97569.06;;;19.27;29.22
64064;BME280;50314;50.618;10.642;2022-10-18T03:13:56;97567.41;;;19.26;29.06
64064;BME280;50314;50.618;10.642;2022-10-18T03:16:21;97567.41;;;19.26;29.39
64064;BME280;50314;50.618;10.642;2022-10-18T03:18:47;97552.38;;;19.25;29.06
64064;BME280;50314;50.618;10.642;2022-10-18T03:21:12;97554.16;;;19.24;29.52
64064;BME280;50314;50.618;10.642;2022-10-18T03:23:38;97558.56;;;19.25;29.13
64064;BME280;50314;50.618;10.642;2022-10-18T03:26:06;97556.84;;;19.24;29.01
64064;BME280;50314;50.618;10.642;2022-10-18T03:28:31;97554.16;;;19.24;29.05
64064;BME280;50314;50.618;10.642;2022-10-18T03:31:00;97550.84;;;19.22;29.37
64064;BME280;50314;50.618;10.642;2022-10-18T03:33:26;97543.50;;;19.24;29.44
64064;BME280;50314;50.618;10.642;2022-10-18T03:35:52;97551.66;;;19.23;29.38
64064;BME280;50314;50.618;10.642;2022-10-18T03:38:17;97550.84;;;19.22;29.50
64064;BME280;50314;50.618;10.642;2022-10-18T03:40:42;97550.84;;;19.22;29.32
64064;BME280;50314;50.618;10.642;2022-10-18T03:43:08;97550.00;;;19.22;29.23
64064;BME280;50314;50.618;10.642;2022-10-18T03:45:33;97540.16;;;19.22;29.34
64064;BME280;50314;50.618;10.642;2022-10-18T03:47:58;97544.66;;;19.22;29.48
64064;BME280;50314;50.618;10.642;2022-10-18T03:50:24;97547.31;;;19.22;29.55
64064;BME280;50314;50.618;10.642;2022-10-18T03:52:49;97549.16;;;19.21;29.07
64064;BME280;50314;50.618;10.642;2022-10-18T03:55:15;97542.13;;;19.20;29.14
64064;BME280;50314;50.618;10.642;2022-10-18T03:57:40;97537.59;;;19.21;29.16
64064;BME280;50314;50.618;10.642;2022-10-18T04:00:06;97547.44;;;19.20;29.45
64064;BME280;50314;50.618;10.642;2022-10-18T04:02:32;97540.44;;;19.19;29.49
64064;BME280;50314;50.618;10.642;2022-10-18T04:04:57;97543.09;;;19.19;29.41
64064;BME280;50314;50.618;10.642;2022-10-18T04:07:23;97535.09;;;19.19;29.46
64064;BME280;50314;50.618;10.642;2022-10-18T04:09:48;97536.09;;;19.18;29.11
64064;BME280;50314;50.618;10.642;2022-10-18T04:12:13;97535.41;;;19.16;29.55
64064;BME280;50314;50.618;10.642;2022-10-18T04:14:39;97536.22;;;19.17;29.20
64064;BME280;50314;50.618;10.642;2022-10-18T04:17:04;97533.56;;;19.17;29.58
64064;BME280;50314;50.618;10.642;2022-10-18T04:19:30;97526.38;;;19.17;29.18
64064;BME280;50314;50.618;10.642;2022-10-18T04:21:55;97521.03;;;19.17;29.18
64064;BME280;50314;50.618;10.642;2022-10-18T04:24:20;97521.88;;;19.18;29.33
64064;BME280;50314;50.618;10.642;2022-10-18T04:26:46;97512.06;;;19.18;29.17
64064;BME280;50314;50.618;10.642;2022-10-18T04:29:11;97521.03;;;19.17;29.55
64064;BME280;50314;50.618;10.642;2022-10-18T04:31:36;97514.03;;;19.16;29.21
64064;BME280;50314;50.618;10.642;2022-10-18T04:34:02;97521.22;;;19.16;29.38
64064;BME280;50314;50.618;10.642;2022-10-18T04:36:29;97518.53;;;19.16;29.26
64064;BME280;50314;50.618;10.642;2022-10-18T04:38:54;97519.38;;;19.16;29.54
64064;BME280;50314;50.618;10.642;2022-10-18T04:41:20;97519.66;;;19.13;29.52
64064;BME280;50314;50.618;10.642;2022-10-18T04:43:45;97516.00;;;19.14;29.32
64064;BME280;50314;50.618;10.642;2022-10-18T04:46:10;97514.19;;;19.15;29.28
64064;BME280;50314;50.618;10.642;2022-10-18T04:48:36;97515.03;;;19.15;29.75
64064;BME280;50314;50.618;10.642;2022-10-18T04:51:01;97513.31;;;19.14;29.29
64064;BME280;50314;50.618;10.642;2022-10-18T04:53:27;97509.81;;;19.14;29.32
64064;BME280;50314;50.618;10.642;2022-10-18T04:55:52;97519.66;;;19.13;29.37
64064;BME280;50314;50.618;10.642;2022-10-18T04:58:18;97517.16;;;19.12;29.71
64064;BME280;50314;50.618;10.642;2022-10-18T05:00:43;97519.66;;;19.13;29.75
64064;BME280;50314;50.618;10.642;2022-10-18T05:03:11;97522.34;;;19.13;29.65
64064;BME280;50314;50.618;10.642;2022-10-18T05:05:37;97520.66;;;19.12;29.36
64064;BME280;50314;50.618;10.642;2022-10-18T05:08:02;97514.50;;;19.12;29.51
64064;BME280;50314;50.618;10.642;2022-10-18T05:10:28;97509.97;;;19.12;29.79
64064;BME280;50314;50.618;10.642;2022-10-18T05:12:53;97509.97;;;19.12;29.54
64064;BME280;50314;50.618;10.642;2022-10-18T05:15:19;97512.66;;;19.12;29.46
64064;BME280;50314;50.618;10.642;2022-10-18T05:17:44;97515.31;;;19.12;29.50
64064;BME280;50314;50.618;10.642;2022-10-18T05:20:10;97510.81;;;19.13;29.43
64064;BME280;50314;50.618;10.642;2022-10-18T05:22:35;97510.94;;;19.11;29.46
64064;BME280;50314;50.618;10.642;2022-10-18T05:25:00;97509.97;;;19.12;29.89
64064;BME280;50314;50.618;10.642;2022-10-18T05:27:27;97506.59;;;19.10;29.47
64064;BME280;50314;50.618;10.642;2022-10-18T05:29:53;97505.59;;;19.11;29.83
64064;BME280;50314;50.618;10.642;2022-10-18T05:32:18;97504.63;;;19.12;29.45
64064;BME280;50314;50.618;10.642;2022-10-18T05:34:44;97492.97;;;19.13;29.75
64064;BME280;50314;50.618;10.642;2022-10-18T05:37:09;97487.63;;;19.13;29.80
64064;BME280;50314;50.618;10.642;2022-10-18T05:39:36;97487.63;;;19.13;29.81
64064;BME280;50314;50.618;10.642;2022-10-18T05:42:01;97491.00;;;19.15;29.66
64064;BME280;50314;50.618;10.642;2022-10-18T05:44:27;97478.63;;;19.14;29.83
64064;BME280;50314;50.618;10.642;2022-10-18T05:46:52;97477.66;;;19.15;29.50
64064;BME280;50314;50.618;10.642;2022-10-18T05:49:18;97480.31;;;19.15;29.48
64064;BME280;50314;50.618;10.642;2022-10-18T05:51:43;97491.84;;;19.16;29.81
64064;BME280;50314;50.618;10.642;2022-10-18T05:54:11;97492.84;;;19.15;29.42
64064;BME280;50314;50.618;10.642;2022-10-18T05:56:36;97483.81;;;19.16;29.88
64064;BME280;50314;50.618;10.642;2022-10-18T05:59:02;97481.16;;;19.16;29.48
64064;BME280;50314;50.618;10.642;2022-10-18T06:01:29;97484.66;;;19.16;29.40
64064;BME280;50314;50.618;10.642;2022-10-18T06:03:55;97488.31;;;19.15;29.43
64064;BME280;50314;50.618;10.642;2022-10-18T06:06:20;97491.00;;;19.15;29.95
64064;BME280;50314;50.618;10.642;2022-10-18T06:08:48;97488.31;;;19.15;29.62
64064;BME280;50314;50.618;10.642;2022-10-18T06:11:16;97477.66;;;19.15;29.98
64064;BME280;50314;50.618;10.642;2022-10-18T06:13:44;97490.84;;;19.17;29.69
64064;BME280;50314;50.618;10.642;2022-10-18T06:16:11;97497.00;;;19.17;29.57
64064;BME280;50314;50.618;10.642;2022-10-18T06:18:36;97494.34;;;19.17;29.49
64064;BME280;50314;50.618;10.642;2022-10-18T06:21:02;97485.50;;;19.17;29.86
64064;BME280;50314;50.618;10.642;2022-10-18T06:23:28;97490.84;;;19.17;29.96
64064;BME280;50314;50.618;10.642;2022-10-18T06:26:02;97478.63;;;19.14;29.72
64064;BME280;50314;50.618;10.642;2022-10-18T06:28:28;97479.16;;;19.18;29.71
64064;BME280;50314;50.618;10.642;2022-10-18T06:30:55;97485.38;;;19.18;29.94
64064;BME280;50314;50.618;10.642;2022-10-18T06:33:21;97498.84;;;19.17;29.79
64064;BME280;50314;50.618;10.642;2022-10-18T06:35:54;97500.84;;;19.15;29.83
64064;BME280;50314;50.618;10.642;2022-10-18T06:38:19;97502.34;;;19.17;29.69
64064;BME280;50314;50.618;10.642;2022-10-18T06:40:46;97508.53;;;19.18;30.16
64064;BME280;50314;50.618;10.642;2022-10-18T06:43:12;97533.44;;;19.18;29.84
64064;BME280;50314;50.618;10.642;2022-10-18T06:45:37;97539.59;;;19.19;29.79
64064;BME280;50314;50.618;10.642;2022-10-18T06:48:03;97544.78;;;19.20;30.17
64064;BME280;50314;50.618;10.642;2022-10-18T06:50:29;97539.44;;;19.20;29.97
64064;BME280;50314;50.618;10.642;2022-10-18T06:52:54;97556.31;;;19.21;30.34
64064;BME280;50314;50.618;10.642;2022-10-18T06:55:19;97550.00;;;19.22;30.47
64064;BME280;50314;50.618;10.642;2022-10-18T06:57:45;97551.81;;;19.21;30.17
64064;BME280;50314;50.618;10.642;2022-10-18T07:00:11;97556.16;;;19.22;30.54
64064;BME280;50314;50.618;10.642;2022-10-18T07:02:36;97557.00;;;19.23;30.70
64064;BME280;50314;50.618;10.642;2022-10-18T07:05:06;97557.00;;;19.23;30.30
64064;BME280;50314;50.618;10.642;2022-10-18T07:07:31;97560.38;;;19.25;30.34
64064;BME280;50314;50.618;10.642;2022-10-18T07:09:56;97551.50;;;19.24;30.52
64064;BME280;50314;50.618;10.642;2022-10-18T07:12:22;97540.81;;;19.24;30.34
64064;BME280;50314;50.618;10.642;2022-10-18T07:14:47;97545.19;;;19.25;30.54
64064;BME280;50314;50.618;10.642;2022-10-18T07:17:13;97551.38;;;19.26;30.85
64064;BME280;50314;50.618;10.642;2022-10-18T07:19:38;97551.38;;;19.26;30.75
64064;BME280;50314;50.618;10.642;2022-10-18T07:22:03;97547.88;;;19.25;30.62
64064;BME280;50314;50.618;10.642;2022-10-18T07:24:29;97545.19;;;19.25;30.94
64064;BME280;50314;50.618;10.642;2022-10-18T07:26:54;97542.53;;;19.25;31.07
64064;BME280;50314;50.618;10.642;2022-10-18T07:29:20;97545.03;;;19.27;31.21
64064;BME280;50314;50.618;10.642;2022-10-18T07:31:45;97549.25;;;19.30;30.57
64064;BME280;50314;50.618;10.642;2022-10-18T07:34:12;97545.75;;;19.29;30.74
64064;BME280;50314;50.618;10.642;2022-10-18T07:36:37;97546.56;;;19.30;30.68
64064;BME280;50314;50.618;10.642;2022-10-18T07:39:03;97548.13;;;19.32;30.59
64064;BME280;50314;50.618;10.642;2022-10-18T07:41:29;97551.63;;;19.33;30.98
64064;BME280;50314;50.618;10.642;2022-10-18T07:43:57;97551.63;;;19.33;31.08
64064;BME280;50314;50.618;10.642;2022-10-18T07:46:23;97550.63;;;19.34;30.87
64064;BME280;50314;50.618;10.642;2022-10-18T07:48:49;97550.63;;;19.34;31.07
64064;BME280;50314;50.618;10.642;2022-10-18T07:51:15;97546.97;;;19.35;30.95
64064;BME280;50314;50.618;10.642;2022-10-18T07:53:41;97546.81;;;19.36;30.81
64064;BME280;50314;50.618;10.642;2022-10-18T07:56:12;97541.47;;;19.36;30.76
64064;BME280;50314;50.618;10.642;2022-10-18T07:58:44;97542.91;;;19.40;30.80
64064;BME280;50314;50.618;10.642;2022-10-18T08:01:11;97541.75;;;19.43;30.90
64064;BME280;50314;50.618;10.642;2022-10-18T08:03:37;97539.75;;;19.45;30.68
64064;BME280;50314;50.618;10.642;2022-10-18T08:06:04;97543.97;;;19.47;30.49
64064;BME280;50314;50.618;10.642;2022-10-18T08:08:30;97543.00;;;19.48;30.45
64064;BME280;50314;50.618;10.642;2022-10-18T08:11:04;97540.47;;;19.47;30.51
64064;BME280;50314;50.618;10.642;2022-10-18T08:13:29;97534.41;;;19.45;30.96
64064;BME280;50314;50.618;10.642;2022-10-18T08:16:02;97538.34;;;19.51;30.54
64064;BME280;50314;50.618;10.642;2022-10-18T08:18:28;97534.38;;;19.55;30.32
64064;BME280;50314;50.618;10.642;2022-10-18T08:20:54;97531.69;;;19.55;30.28
64064;BME280;50314;50.618;10.642;2022-10-18T08:23:19;97522.53;;;19.57;30.55
64064;BME280;50314;50.618;10.642;2022-10-18T08:25:45;97532.09;;;19.60;30.58
64064;BME280;50314;50.618;10.642;2022-10-18T08:28:10;97531.94;;;19.61;30.76
64064;BME280;50314;50.618;10.642;2022-10-18T08:30:38;97529.81;;;19.65;30.53
64064;BME280;50314;50.618;10.642;2022-10-18T08:33:04;97531.34;;;19.67;30.43
64064;BME280;50314;50.618;10.642;2022-10-18T08:35:30;97534.72;;;19.69;30.41
64064;BME280;50314;50.618;10.642;2022-10-18T08:37:56;97537.22;;;19.71;30.59
64064;BME280;50314;50.618;10.642;2022-10-18T08:40:21;97534.41;;;19.73;30.27
64064;BME280;50314;50.618;10.642;2022-10-18T08:45:37;97537.75;;;19.75;30.61
64064;BME280;50314;50.618;10.642;2022-10-18T08:48:05;97555.34;;;19.77;30.30
64064;BME280;50314;50.618;10.642;2022-10-18T08:50:35;97570.53;;;19.77;30.60
64064;BME280;50314;50.618;10.642;2022-10-18T08:55:56;97560.97;;;19.74;30.55
64064;BME280;50314;50.618;10.642;2022-10-18T08:58:24;97555.88;;;19.81;30.51
64064;BME280;50314;50.618;10.642;2022-10-18T09:07:23;97557.16;;;19.77;30.59
64064;BME280;50314;50.618;10.642;2022-10-18T09:10:07;97552.50;;;19.79;30.19
64064;BME280;50314;50.618;10.642;2022-10-18T09:15:58;97554.19;;;19.80;30.39
64064;BME280;50314;50.618;10.642;2022-10-18T09:18:58;97557.84;;;19.79;30.00
64064;BME280;50314;50.618;10.642;2022-10-18T09:21:31;97560.91;;;19.84;30.33
64064;BME280;50314;50.618;10.642;2022-10-18T09:26:47;97568.94;;;19.84;30.21
64064;BME280;50314;50.618;10.642;2022-10-18T09:35:28;97583.13;;;19.84;30.22
64064;BME280;50314;50.618;10.642;2022-10-18T09:38:03;97584.66;;;19.87;29.90
64064;BME280;50314;50.618;10.642;2022-10-18T09:40:37;97587.03;;;19.90;30.04
64064;BME280;50314;50.618;10.642;2022-10-18T09:43:17;97586.34;;;19.88;29.96
64064;BME280;50314;50.618;10.642;2022-10-18T09:45:44;97588.41;;;19.94;29.87
64064;BME280;50314;50.618;10.642;2022-10-18T09:48:33;97582.38;;;19.92;30.21
64064;BME280;50314;50.618;10.642;2022-10-18T09:51:07;97592.75;;;19.95;29.85
64064;BME280;50314;50.618;10.642;2022-10-18T09:56:19;97600.66;;;19.97;30.44
64064;BME280;50314;50.618;10.642;2022-10-18T09:58:49;97597.53;;;20.01;30.20
64064;BME280;50314;50.618;10.642;2022-10-18T10:01:21;97604.72;;;20.01;30.11
64064;BME280;50314;50.618;10.642;2022-10-18T10:03:48;97605.09;;;20.06;30.01
64064;BME280;50314;50.618;10.642;2022-10-18T10:06:17;97602.28;;;20.07;30.06
64064;BME280;50314;50.618;10.642;2022-10-18T10:08:48;97601.00;;;20.11;30.43
64064;BME280;50314;50.618;10.642;2022-10-18T10:11:36;97605.66;;;20.09;30.15
64064;BME280;50314;50.618;10.642;2022-10-18T10:14:09;97603.38;;;20.14;30.19
64064;BME280;50314;50.618;10.642;2022-10-18T10:16:46;97602.34;;;20.15;30.38
64064;BME280;50314;50.618;10.642;2022-10-18T10:19:17;97601.75;;;20.22;31.08
64064;BME280;50314;50.618;10.642;2022-10-18T10:21:46;97598.47;;;20.28;30.92
64064;BME280;50314;50.618;10.642;2022-10-18T10:24:50;97596.09;;;20.25;31.17
64064;BME280;50314;50.618;10.642;2022-10-18T10:27:29;97603.81;;;20.28;31.00
64064;BME280;50314;50.618;10.642;2022-10-18T10:29:57;97604.88;;;20.35;30.50
64064;BME280;50314;50.618;10.642;2022-10-18T10:32:26;97604.75;;;20.36;30.52
64064;BME280;50314;50.618;10.642;2022-10-18T10:34:52;97605.94;;;20.42;30.66
64064;BME280;50314;50.618;10.642;2022-10-18T10:37:27;97602.31;;;20.43;30.37
64064;BME280;50314;50.618;10.642;2022-10-18T10:40:13;97612.00;;;20.44;30.31
64064;BME280;50314;50.618;10.642;2022-10-18T10:42:55;97607.19;;;20.48;30.56
64064;BME280;50314;50.618;10.642;2022-10-18T10:45:22;97606.56;;;20.54;30.30
64064;BME280;50314;50.618;10.642;2022-10-18T10:47:51;97608.25;;;20.55;30.44
64064;BME280;50314;50.618;10.642;2022-10-18T10:50:24;97601.22;;;20.54;30.20
64064;BME280;50314;50.618;10.642;2022-10-18T10:52:51;97604.56;;;20.56;29.87
64064;BME280;50314;50.618;10.642;2022-10-18T10:55:19;97607.09;;;20.57;29.92
64064;BME280;50314;50.618;10.642;2022-10-18T10:57:48;97607.94;;;20.58;30.17
64064;BME280;50314;50.618;10.642;2022-10-18T11:00:43;97610.09;;;20.54;30.10
64064;BME280;50314;50.618;10.642;2022-10-18T11:03:14;97611.63;;;20.57;30.18
64064;BME280;50314;50.618;10.642;2022-10-18T11:05:54;97618.38;;;20.61;29.81
64064;BME280;50314;50.618;10.642;2022-10-18T11:08:25;97611.34;;;20.60;30.14
64064;BME280;50314;50.618;10.642;2022-10-18T11:11:18;97615.44;;;20.54;30.10
64064;BME280;50314;50.618;10.642;2022-10-18T11:13:48;97623.84;;;20.59;30.00
64064;BME280;50314;50.618;10.642;2022-10-18T11:16:26;97603.06;;;20.53;30.28
64064;BME280;50314;50.618;10.642;2022-10-18T11:18:55;97609.78;;;20.57;30.28
64064;BME280;50314;50.618;10.642;2022-10-18T11:21:24;97613.28;;;20.58;29.99
64064;BME280;50314;50.618;10.642;2022-10-18T11:23:51;97613.28;;;20.58;30.05
64064;BME280;50314;50.618;10.642;2022-10-18T11:26:41;97617.94;;;20.56;30.09
64064;BME280;50314;50.618;10.642;2022-10-18T11:29:34;97618.41;;;20.51;30.27
64064;BME280;50314;50.618;10.642;2022-10-18T11:40:57;97588.38;;;20.57;30.10
64064;BME280;50314;50.618;10.642;2022-10-18T11:43:26;97596.94;;;20.61;30.23
64064;BME280;50314;50.618;10.642;2022-10-18T11:46:08;97586.69;;;20.74;30.00
64064;BME280;50314;50.618;10.642;2022-10-18T11:49:04;97588.25;;;20.85;29.91
64064;BME280;50314;50.618;10.642;2022-10-18T11:57:39;97592.28;;;20.89;29.69
64064;BME280;50314;50.618;10.642;2022-10-18T12:00:34;97593.97;;;20.90;29.55
64064;BME280;50314;50.618;10.642;2022-10-18T12:03:13;97597.19;;;20.94;29.41
64064;BME280;50314;50.618;10.642;2022-10-18T12:05:42;97600.53;;;20.96;29.50
64064;BME280;50314;50.618;10.642;2022-10-18T12:08:20;97593.50;;;20.95;29.23
64064;BME280;50314;50.618;10.642;2022-10-18T12:10:50;97594.88;;;20.99;29.32
64064;BME280;50314;50.618;10.642;2022-10-18T12:13:29;97596.72;;;20.98;29.50
64064;BME280;50314;50.618;10.642;2022-10-18T12:15:58;97595.06;;;21.05;29.60
64064;BME280;50314;50.618;10.642;2022-10-18T12:18:24;97599.13;;;21.09;29.37
64064;BME280;50314;50.618;10.642;2022-10-18T12:20:53;97604.00;;;21.14;29.31
64064;BME280;50314;50.618;10.642;2022-10-18T12:23:37;97597.78;;;21.13;29.52
64064;BME280;50314;50.618;10.642;2022-10-18T12:26:05;97604.25;;;21.21;29.20
64064;BME280;50314;50.618;10.642;2022-10-18T12:33:44;97600.78;;;21.28;29.36
64064;BME280;50314;50.618;10.642;2022-10-18T12:38:57;97609.63;;;21.29;29.29
64064;BME280;50314;50.618;10.642;2022-10-18T12:41:24;97599.63;;;21.31;29.32
64064;BME280;50314;50.618;10.642;2022-10-18T12:43:56;97597.59;;;21.33;29.21
64064;BME280;50314;50.618;10.642;2022-10-18T12:46:23;97591.94;;;21.36;29.25
64064;BME280;50314;50.618;10.642;2022-10-18T12:49:02;97590.41;;;21.33;29.31
64064;BME280;50314;50.618;10.642;2022-10-18T12:51:28;97591.59;;;21.39;29.23
64064;BME280;50314;50.618;10.642;2022-10-18T13:09:29;97591.22;;;21.34;29.52
64064;BME280;50314;50.618;10.642;2022-10-18T13:15:05;97607.47;;;21.32;29.34
64064;BME280;50314;50.618;10.642;2022-10-18T13:17:43;97601.63;;;21.37;29.53
64064;BME280;50314;50.618;10.642;2022-10-18T13:20:37;97604.09;;;21.30;29.34
64064;BME280;50314;50.618;10.642;2022-10-18T13:23:10;97598.28;;;21.35;29.24
64064;BME280;50314;50.618;10.642;2022-10-18T13:33:43;97597.34;;;21.52;29.36
64064;BME280;50314;50.618;10.642;2022-10-18T14:09:19;97622.13;;;21.46;29.10
64064;BME280;50314;50.618;10.642;2022-10-18T14:11:54;97623.44;;;21.42;29.18
64064;BME280;50314;50.618;10.642;2022-10-18T14:19:57;97625.59;;;21.39;29.10
64064;BME280;50314;50.618;10.642;2022-10-18T14:22:28;97629.28;;;21.38;29.15
64064;BME280;50314;50.618;10.642;2022-10-18T14:24:57;97628.44;;;21.37;29.06
64064;BME280;50314;50.618;10.642;2022-10-18T14:27:28;97628.75;;;21.34;29.07
64064;BME280;50314;50.618;10.642;2022-10-18T14:30:13;97630.38;;;21.27;29.41
64064;BME280;50314;50.618;10.642;2022-10-18T14:32:47;97627.88;;;21.25;29.40
64064;BME280;50314;50.618;10.642;2022-10-18T14:35:25;97630.69;;;21.24;29.73
64064;BME280;50314;50.618;10.642;2022-10-18T14:37:53;97630.06;;;21.30;29.39
64064;BME280;50314;50.618;10.642;2022-10-18T14:40:45;97630.56;;;21.25;29.20
64064;BME280;50314;50.618;10.642;2022-10-18T14:43:17;97635.75;;;21.27;29.37
64064;BME280;50314;50.618;10.642;2022-10-18T14:45:43;97636.44;;;21.29;29.51
64064;BME280;50314;50.618;10.642;2022-10-18T14:50:38;97630.56;;;21.25;29.80
64064;BME280;50314;50.618;10.642;2022-10-18T14:53:10;97637.06;;;21.23;29.89
64064;BME280;50314;50.618;10.642;2022-10-18T14:55:37;97637.06;;;21.23;29.88
64064;BME280;50314;50.618;10.642;2022-10-18T14:58:11;97633.03;;;21.19;29.84
64064;BME280;50314;50.618;10.642;2022-10-18T15:00:39;97641.75;;;21.21;29.68
64064;BME280;50314;50.618;10.642;2022-10-18T15:03:05;97644.56;;;21.19;29.54
64064;BME280;50314;50.618;10.642;2022-10-18T15:05:36;97640.34;;;21.17;29.52
64064;BME280;50314;50.618;10.642;2022-10-18T15:08:02;97637.66;;;21.17;29.49
64064;BME280;50314;50.618;10.642;2022-10-18T15:10:30;97640.66;;;21.13;29.49
64064;BME280;50314;50.618;10.642;2022-10-18T15:12:57;97645.34;;;21.11;29.50
64064;BME280;50314;50.618;10.642;2022-10-18T15:15:28;97644.50;;;21.11;29.56
64064;BME280;50314;50.618;10.642;2022-10-18T15:17:54;97639.28;;;21.09;29.43
64064;BME280;50314;50.618;10.642;2022-10-18T15:22:50;97645.97;;;21.05;29.47
64064;BME280;50314;50.618;10.642;2022-10-18T15:25:25;97646.97;;;21.04;29.37